sensor_id;sensor_type;location;lat;lon;timestamp;P1;durP1;ratioP1;P2;durP2;ratioP2
6027;SDS011;3042;43.194;27.646;2022-09-24T00:00:50;8.57;;;5.53;;
6027;SDS011;3042;43.194;27.646;2022-09-24T00:03:18;13.03;;;6.40;;
6027;SDS011;3042;43.194;27.646;2022-09-24T00:05:45;15.73;;;7.57;;
6027;SDS011;3042;43.194;27.646;2022-09-24T00:08:15;12.43;;;6.67;;
6027;SDS011;3042;43.194;27.646;2022-09-24T00:10:44;12.30;;;5.73;;
6027;SDS011;3042;43.194;27.646;2022-09-24T00:13:13;7.70;;;5.20;;
6027;SDS011;3042;43.194;27.646;2022-09-24T00:15:42;12.03;;;5.80;;
6027;SDS011;3042;43.194;27.646;2022-09-24T00:18:12;7.93;;;5.50;;
6027;SDS011;3042;43.194;27.646;2022-09-24T00:20:41;30.57;;;7.30;;
6027;SDS011;3042;43.194;27.646;2022-09-24T00:23:09;8.90;;;6.80;;
6027;SDS011;3042;43.194;27.646;2022-09-24T00:25:40;15.70;;;8.60;;
6027;SDS011;3042;43.194;27.646;2022-09-24T00:28:26;14.50;;;10.43;;
6027;SDS011;3042;43.194;27.646;2022-09-24T00:30:53;25.50;;;13.30;;
6027;SDS011;3042;43.194;27.646;2022-09-24T00:33:22;16.50;;;13.00;;
6027;SDS011;3042;43.194;27.646;2022-09-24T00:35:50;25.37;;;13.80;;
6027;SDS011;3042;43.194;27.646;2022-09-24T00:38:17;17.80;;;8.90;;
6027;SDS011;3042;43.194;27.646;2022-09-24T00:40:46;8.93;;;7.47;;
6027;SDS011;3042;43.194;27.646;2022-09-24T00:43:23;8.97;;;7.13;;
6027;SDS011;3042;43.194;27.646;2022-09-24T00:45:52;8.97;;;7.10;;
6027;SDS011;3042;43.194;27.646;2022-09-24T00:48:22;13.17;;;6.70;;
6027;SDS011;3042;43.194;27.646;2022-09-24T00:50:50;9.43;;;7.80;;
6027;SDS011;3042;43.194;27.646;2022-09-24T00:53:18;7.67;;;7.07;;
6027;SDS011;3042;43.194;27.646;2022-09-24T00:55:50;10.43;;;6.90;;
6027;SDS011;3042;43.194;27.646;2022-09-24T00:58:20;8.20;;;6.37;;
6027;SDS011;3042;43.194;27.646;2022-09-24T01:00:48;14.50;;;6.67;;
6027;SDS011;3042;43.194;27.646;2022-09-24T01:03:22;4.80;;;4.57;;
6027;SDS011;3042;43.194;27.646;2022-09-24T01:05:51;8.93;;;4.87;;
6027;SDS011;3042;43.194;27.646;2022-09-24T01:08:19;5.20;;;3.83;;
6027;SDS011;3042;43.194;27.646;2022-09-24T01:10:53;4.20;;;3.90;;
6027;SDS011;3042;43.194;27.646;2022-09-24T01:13:45;19.07;;;5.27;;
6027;SDS011;3042;43.194;27.646;2022-09-24T01:16:30;3.93;;;3.60;;
6027;SDS011;3042;43.194;27.646;2022-09-24T01:19:06;8.63;;;6.07;;
6027;SDS011;3042;43.194;27.646;2022-09-24T01:21:43;11.00;;;6.27;;
6027;SDS011;3042;43.194;27.646;2022-09-24T01:24:28;6.10;;;4.60;;
6027;SDS011;3042;43.194;27.646;2022-09-24T01:27:14;13.70;;;6.30;;
6027;SDS011;3042;43.194;27.646;2022-09-24T01:29:49;22.07;;;7.00;;
6027;SDS011;3042;43.194;27.646;2022-09-24T01:32:27;12.03;;;9.67;;
6027;SDS011;3042;43.194;27.646;2022-09-24T01:35:02;23.33;;;10.70;;
6027;SDS011;3042;43.194;27.646;2022-09-24T01:37:35;33.83;;;11.37;;
6027;SDS011;3042;43.194;27.646;2022-09-24T01:40:06;16.63;;;10.80;;
6027;SDS011;3042;43.194;27.646;2022-09-24T01:42:37;17.20;;;10.33;;
6027;SDS011;3042;43.194;27.646;2022-09-24T01:45:08;9.83;;;8.80;;
6027;SDS011;3042;43.194;27.646;2022-09-24T01:47:38;19.27;;;8.40;;
6027;SDS011;3042;43.194;27.646;2022-09-24T01:50:07;8.40;;;7.70;;
6027;SDS011;3042;43.194;27.646;2022-09-24T01:52:39;16.93;;;8.53;;
6027;SDS011;3042;43.194;27.646;2022-09-24T01:55:10;12.30;;;8.10;;
6027;SDS011;3042;43.194;27.646;2022-09-24T01:57:42;11.00;;;6.40;;
6027;SDS011;3042;43.194;27.646;2022-09-24T02:00:15;9.23;;;4.30;;
6027;SDS011;3042;43.194;27.646;2022-09-24T02:02:45;6.10;;;4.47;;
6027;SDS011;3042;43.194;27.646;2022-09-24T02:05:17;14.60;;;5.80;;
6027;SDS011;3042;43.194;27.646;2022-09-24T02:07:49;5.40;;;5.10;;
6027;SDS011;3042;43.194;27.646;2022-09-24T02:10:21;4.90;;;4.60;;
6027;SDS011;3042;43.194;27.646;2022-09-24T02:12:49;6.37;;;4.93;;
6027;SDS011;3042;43.194;27.646;2022-09-24T02:15:25;5.53;;;5.13;;
6027;SDS011;3042;43.194;27.646;2022-09-24T02:17:55;5.23;;;4.93;;
6027;SDS011;3042;43.194;27.646;2022-09-24T02:20:26;45.90;;;34.83;;
6027;SDS011;3042;43.194;27.646;2022-09-24T02:22:54;51.53;;;32.47;;
6027;SDS011;3042;43.194;27.646;2022-09-24T02:25:24;17.00;;;12.90;;
6027;SDS011;3042;43.194;27.646;2022-09-24T02:27:57;13.70;;;10.07;;
6027;SDS011;3042;43.194;27.646;2022-09-24T02:30:26;7.70;;;6.90;;
6027;SDS011;3042;43.194;27.646;2022-09-24T02:32:53;6.10;;;5.67;;
6027;SDS011;3042;43.194;27.646;2022-09-24T02:35:22;9.03;;;4.30;;
6027;SDS011;3042;43.194;27.646;2022-09-24T02:37:49;17.77;;;12.20;;
6027;SDS011;3042;43.194;27.646;2022-09-24T02:40:16;23.70;;;17.27;;
6027;SDS011;3042;43.194;27.646;2022-09-24T02:42:43;32.10;;;17.60;;
6027;SDS011;3042;43.194;27.646;2022-09-24T02:45:10;25.40;;;17.73;;
6027;SDS011;3042;43.194;27.646;2022-09-24T02:47:40;74.27;;;45.80;;
6027;SDS011;3042;43.194;27.646;2022-09-24T02:50:07;66.70;;;43.47;;
6027;SDS011;3042;43.194;27.646;2022-09-24T02:52:35;45.77;;;29.47;;
6027;SDS011;3042;43.194;27.646;2022-09-24T02:55:02;11.17;;;9.67;;
6027;SDS011;3042;43.194;27.646;2022-09-24T02:57:30;15.17;;;11.30;;
6027;SDS011;3042;43.194;27.646;2022-09-24T02:59:57;16.63;;;12.63;;
6027;SDS011;3042;43.194;27.646;2022-09-24T03:02:24;17.98;;;9.55;;
6027;SDS011;3042;43.194;27.646;2022-09-24T03:04:53;17.10;;;8.27;;
6027;SDS011;3042;43.194;27.646;2022-09-24T03:07:20;11.40;;;9.20;;
6027;SDS011;3042;43.194;27.646;2022-09-24T03:09:47;16.03;;;7.10;;
6027;SDS011;3042;43.194;27.646;2022-09-24T03:12:15;18.57;;;6.70;;
6027;SDS011;3042;43.194;27.646;2022-09-24T03:14:42;7.60;;;6.50;;
6027;SDS011;3042;43.194;27.646;2022-09-24T03:17:09;7.33;;;6.53;;
6027;SDS011;3042;43.194;27.646;2022-09-24T03:19:36;7.60;;;6.83;;
6027;SDS011;3042;43.194;27.646;2022-09-24T03:22:05;15.57;;;7.93;;
6027;SDS011;3042;43.194;27.646;2022-09-24T03:24:32;9.73;;;8.63;;
6027;SDS011;3042;43.194;27.646;2022-09-24T03:27:00;16.13;;;7.17;;
6027;SDS011;3042;43.194;27.646;2022-09-24T03:29:27;8.73;;;7.93;;
6027;SDS011;3042;43.194;27.646;2022-09-24T03:32:17;10.57;;;8.20;;
6027;SDS011;3042;43.194;27.646;2022-09-24T03:34:44;10.90;;;9.20;;
6027;SDS011;3042;43.194;27.646;2022-09-24T03:37:13;10.33;;;7.83;;
6027;SDS011;3042;43.194;27.646;2022-09-24T03:39:40;9.37;;;7.37;;
6027;SDS011;3042;43.194;27.646;2022-09-24T03:42:07;10.97;;;8.20;;
6027;SDS011;3042;43.194;27.646;2022-09-24T03:44:34;9.60;;;8.70;;
6027;SDS011;3042;43.194;27.646;2022-09-24T03:47:02;10.37;;;7.60;;
6027;SDS011;3042;43.194;27.646;2022-09-24T03:49:29;10.30;;;7.97;;
6027;SDS011;3042;43.194;27.646;2022-09-24T03:51:56;9.20;;;8.30;;
6027;SDS011;3042;43.194;27.646;2022-09-24T03:54:25;12.83;;;9.60;;
6027;SDS011;3042;43.194;27.646;2022-09-24T03:56:52;14.90;;;10.30;;
6027;SDS011;3042;43.194;27.646;2022-09-24T03:59:19;14.80;;;10.97;;
6027;SDS011;3042;43.194;27.646;2022-09-24T04:01:47;12.77;;;9.90;;
6027;SDS011;3042;43.194;27.646;2022-09-24T04:04:14;15.30;;;10.73;;
6027;SDS011;3042;43.194;27.646;2022-09-24T04:06:41;17.43;;;11.67;;
6027;SDS011;3042;43.194;27.646;2022-09-24T04:09:09;18.30;;;12.97;;
6027;SDS011;3042;43.194;27.646;2022-09-24T04:11:38;17.03;;;13.70;;
6027;SDS011;3042;43.194;27.646;2022-09-24T04:14:05;21.73;;;14.10;;
6027;SDS011;3042;43.194;27.646;2022-09-24T04:16:32;23.88;;;14.90;;
6027;SDS011;3042;43.194;27.646;2022-09-24T04:19:00;20.70;;;13.60;;
6027;SDS011;3042;43.194;27.646;2022-09-24T04:21:27;24.80;;;12.63;;
6027;SDS011;3042;43.194;27.646;2022-09-24T04:23:56;18.33;;;11.85;;
6027;SDS011;3042;43.194;27.646;2022-09-24T04:26:23;22.57;;;13.33;;
6027;SDS011;3042;43.194;27.646;2022-09-24T04:28:52;24.70;;;16.47;;
6027;SDS011;3042;43.194;27.646;2022-09-24T04:31:19;25.25;;;17.52;;
6027;SDS011;3042;43.194;27.646;2022-09-24T04:33:46;19.00;;;14.97;;
6027;SDS011;3042;43.194;27.646;2022-09-24T04:36:13;29.07;;;17.80;;
6027;SDS011;3042;43.194;27.646;2022-09-24T04:38:40;25.13;;;17.00;;
6027;SDS011;3042;43.194;27.646;2022-09-24T04:41:08;38.70;;;18.58;;
6027;SDS011;3042;43.194;27.646;2022-09-24T04:43:36;27.00;;;15.77;;
6027;SDS011;3042;43.194;27.646;2022-09-24T04:46:05;15.10;;;12.70;;
6027;SDS011;3042;43.194;27.646;2022-09-24T04:48:32;19.80;;;9.43;;
6027;SDS011;3042;43.194;27.646;2022-09-24T04:51:02;9.60;;;8.10;;
6027;SDS011;3042;43.194;27.646;2022-09-24T04:53:30;9.23;;;6.10;;
6027;SDS011;3042;43.194;27.646;2022-09-24T04:55:57;14.00;;;7.73;;
6027;SDS011;3042;43.194;27.646;2022-09-24T04:58:25;16.87;;;6.70;;
6027;SDS011;3042;43.194;27.646;2022-09-24T05:00:52;7.00;;;6.30;;
6027;SDS011;3042;43.194;27.646;2022-09-24T05:03:21;5.43;;;5.10;;
6027;SDS011;3042;43.194;27.646;2022-09-24T05:05:48;18.58;;;6.93;;
6027;SDS011;3042;43.194;27.646;2022-09-24T05:08:15;15.40;;;8.83;;
6027;SDS011;3042;43.194;27.646;2022-09-24T05:10:42;9.03;;;8.17;;
6027;SDS011;3042;43.194;27.646;2022-09-24T05:13:10;12.23;;;8.23;;
6027;SDS011;3042;43.194;27.646;2022-09-24T05:15:37;13.83;;;7.93;;
6027;SDS011;3042;43.194;27.646;2022-09-24T05:18:04;9.10;;;7.33;;
6027;SDS011;3042;43.194;27.646;2022-09-24T05:20:33;16.80;;;9.23;;
6027;SDS011;3042;43.194;27.646;2022-09-24T05:23:00;16.93;;;9.50;;
6027;SDS011;3042;43.194;27.646;2022-09-24T05:25:27;11.17;;;9.30;;
6027;SDS011;3042;43.194;27.646;2022-09-24T05:27:55;27.30;;;9.40;;
6027;SDS011;3042;43.194;27.646;2022-09-24T05:30:21;7.10;;;6.40;;
6027;SDS011;3042;43.194;27.646;2022-09-24T05:32:50;17.40;;;10.93;;
6027;SDS011;3042;43.194;27.646;2022-09-24T05:35:18;10.20;;;9.10;;
6027;SDS011;3042;43.194;27.646;2022-09-24T05:37:47;9.83;;;8.10;;
6027;SDS011;3042;43.194;27.646;2022-09-24T05:40:17;12.30;;;9.17;;
6027;SDS011;3042;43.194;27.646;2022-09-24T05:43:02;8.97;;;7.50;;
6027;SDS011;3042;43.194;27.646;2022-09-24T05:45:30;10.03;;;7.43;;
6027;SDS011;3042;43.194;27.646;2022-09-24T05:47:57;7.90;;;5.80;;
6027;SDS011;3042;43.194;27.646;2022-09-24T05:50:24;10.70;;;7.20;;
6027;SDS011;3042;43.194;27.646;2022-09-24T05:52:53;17.97;;;6.80;;
6027;SDS011;3042;43.194;27.646;2022-09-24T05:55:20;11.50;;;6.13;;
6027;SDS011;3042;43.194;27.646;2022-09-24T05:57:47;6.53;;;5.93;;
6027;SDS011;3042;43.194;27.646;2022-09-24T06:00:15;19.17;;;6.50;;
6027;SDS011;3042;43.194;27.646;2022-09-24T06:02:42;16.60;;;7.20;;
6027;SDS011;3042;43.194;27.646;2022-09-24T06:05:10;7.33;;;6.83;;
6027;SDS011;3042;43.194;27.646;2022-09-24T06:07:38;8.50;;;7.60;;
6027;SDS011;3042;43.194;27.646;2022-09-24T06:10:07;12.03;;;10.30;;
6027;SDS011;3042;43.194;27.646;2022-09-24T06:12:35;12.38;;;9.90;;
6027;SDS011;3042;43.194;27.646;2022-09-24T06:15:03;9.03;;;8.10;;
6027;SDS011;3042;43.194;27.646;2022-09-24T06:17:30;7.43;;;6.57;;
6027;SDS011;3042;43.194;27.646;2022-09-24T06:19:57;6.27;;;5.83;;
6027;SDS011;3042;43.194;27.646;2022-09-24T06:22:26;17.50;;;7.07;;
6027;SDS011;3042;43.194;27.646;2022-09-24T06:24:53;5.00;;;4.67;;
6027;SDS011;3042;43.194;27.646;2022-09-24T06:27:22;8.00;;;5.30;;
6027;SDS011;3042;43.194;27.646;2022-09-24T06:29:49;4.73;;;3.93;;
6027;SDS011;3042;43.194;27.646;2022-09-24T06:32:16;5.20;;;4.70;;
6027;SDS011;3042;43.194;27.646;2022-09-24T06:34:44;5.00;;;4.60;;
6027;SDS011;3042;43.194;27.646;2022-09-24T06:37:11;4.63;;;4.43;;
6027;SDS011;3042;43.194;27.646;2022-09-24T06:39:38;7.07;;;4.47;;
6027;SDS011;3042;43.194;27.646;2022-09-24T06:42:06;3.60;;;3.40;;
6027;SDS011;3042;43.194;27.646;2022-09-24T06:44:35;15.10;;;5.33;;
6027;SDS011;3042;43.194;27.646;2022-09-24T06:47:02;4.00;;;3.70;;
6027;SDS011;3042;43.194;27.646;2022-09-24T06:49:29;3.63;;;3.43;;
6027;SDS011;3042;43.194;27.646;2022-09-24T06:51:57;4.43;;;4.10;;
6027;SDS011;3042;43.194;27.646;2022-09-24T06:54:24;13.10;;;5.40;;
6027;SDS011;3042;43.194;27.646;2022-09-24T06:56:51;6.00;;;5.50;;
6027;SDS011;3042;43.194;27.646;2022-09-24T06:59:18;5.03;;;4.63;;
6027;SDS011;3042;43.194;27.646;2022-09-24T07:01:49;5.83;;;5.33;;
6027;SDS011;3042;43.194;27.646;2022-09-24T07:04:16;6.10;;;5.50;;
6027;SDS011;3042;43.194;27.646;2022-09-24T07:06:44;7.43;;;4.90;;
6027;SDS011;3042;43.194;27.646;2022-09-24T07:09:28;6.07;;;5.47;;
6027;SDS011;3042;43.194;27.646;2022-09-24T07:11:57;5.30;;;4.80;;
6027;SDS011;3042;43.194;27.646;2022-09-24T07:14:25;8.30;;;5.90;;
6027;SDS011;3042;43.194;27.646;2022-09-24T07:16:54;5.43;;;4.93;;
6027;SDS011;3042;43.194;27.646;2022-09-24T07:19:21;5.43;;;4.70;;
6027;SDS011;3042;43.194;27.646;2022-09-24T07:21:48;10.00;;;5.13;;
6027;SDS011;3042;43.194;27.646;2022-09-24T07:24:16;4.53;;;4.30;;
6027;SDS011;3042;43.194;27.646;2022-09-24T07:26:43;14.13;;;6.30;;
6027;SDS011;3042;43.194;27.646;2022-09-24T07:29:10;6.83;;;3.87;;
6027;SDS011;3042;43.194;27.646;2022-09-24T07:31:37;5.17;;;3.00;;
6027;SDS011;3042;43.194;27.646;2022-09-24T07:34:07;19.40;;;4.77;;
6027;SDS011;3042;43.194;27.646;2022-09-24T07:36:34;2.40;;;2.30;;
6027;SDS011;3042;43.194;27.646;2022-09-24T07:39:01;6.60;;;3.63;;
6027;SDS011;3042;43.194;27.646;2022-09-24T07:41:29;7.40;;;2.03;;
6027;SDS011;3042;43.194;27.646;2022-09-24T07:43:57;19.50;;;3.93;;
6027;SDS011;3042;43.194;27.646;2022-09-24T07:46:24;5.17;;;2.73;;
6027;SDS011;3042;43.194;27.646;2022-09-24T07:48:52;5.57;;;2.20;;
6027;SDS011;3042;43.194;27.646;2022-09-24T07:51:21;17.57;;;3.57;;
6027;SDS011;3042;43.194;27.646;2022-09-24T07:53:50;22.97;;;5.03;;
6027;SDS011;3042;43.194;27.646;2022-09-24T07:56:17;58.67;;;3.50;;
6027;SDS011;3042;43.194;27.646;2022-09-24T07:58:46;5.43;;;2.13;;
6027;SDS011;3042;43.194;27.646;2022-09-24T08:01:15;4.03;;;2.40;;
6027;SDS011;3042;43.194;27.646;2022-09-24T08:03:43;11.20;;;2.20;;
6027;SDS011;3042;43.194;27.646;2022-09-24T08:06:10;4.00;;;1.90;;
6027;SDS011;3042;43.194;27.646;2022-09-24T08:08:39;12.13;;;3.30;;
6027;SDS011;3042;43.194;27.646;2022-09-24T08:11:08;1.60;;;1.50;;
6027;SDS011;3042;43.194;27.646;2022-09-24T08:13:38;1.30;;;1.20;;
6027;SDS011;3042;43.194;27.646;2022-09-24T08:16:07;7.27;;;2.90;;
6027;SDS011;3042;43.194;27.646;2022-09-24T08:18:35;6.53;;;2.10;;
6027;SDS011;3042;43.194;27.646;2022-09-24T08:21:02;7.67;;;3.00;;
6027;SDS011;3042;43.194;27.646;2022-09-24T08:23:31;30.43;;;6.73;;
6027;SDS011;3042;43.194;27.646;2022-09-24T08:26:00;17.70;;;3.70;;
6027;SDS011;3042;43.194;27.646;2022-09-24T08:28:27;12.73;;;4.37;;
6027;SDS011;3042;43.194;27.646;2022-09-24T08:30:56;7.20;;;2.47;;
6027;SDS011;3042;43.194;27.646;2022-09-24T08:33:24;5.80;;;2.33;;
6027;SDS011;3042;43.194;27.646;2022-09-24T08:35:52;3.93;;;1.40;;
6027;SDS011;3042;43.194;27.646;2022-09-24T08:38:19;0.80;;;0.80;;
6027;SDS011;3042;43.194;27.646;2022-09-24T08:40:55;2.20;;;0.93;;
6027;SDS011;3042;43.194;27.646;2022-09-24T08:43:33;2.80;;;1.27;;
6027;SDS011;3042;43.194;27.646;2022-09-24T08:46:13;1.60;;;1.13;;
6027;SDS011;3042;43.194;27.646;2022-09-24T08:49:01;2.73;;;1.20;;
6027;SDS011;3042;43.194;27.646;2022-09-24T08:51:32;1.67;;;1.10;;
6027;SDS011;3042;43.194;27.646;2022-09-24T08:54:06;29.07;;;3.13;;
6027;SDS011;3042;43.194;27.646;2022-09-24T08:56:37;1.50;;;1.30;;
6027;SDS011;3042;43.194;27.646;2022-09-24T08:59:13;14.00;;;2.13;;
6027;SDS011;3042;43.194;27.646;2022-09-24T09:01:51;2.37;;;1.40;;
6027;SDS011;3042;43.194;27.646;2022-09-24T09:04:26;2.83;;;0.90;;
6027;SDS011;3042;43.194;27.646;2022-09-24T09:07:04;8.00;;;1.47;;
6027;SDS011;3042;43.194;27.646;2022-09-24T09:09:41;2.20;;;0.90;;
6027;SDS011;3042;43.194;27.646;2022-09-24T09:12:15;3.20;;;1.10;;
6027;SDS011;3042;43.194;27.646;2022-09-24T09:14:50;1.10;;;1.00;;
6027;SDS011;3042;43.194;27.646;2022-09-24T09:17:28;2.80;;;1.33;;
6027;SDS011;3042;43.194;27.646;2022-09-24T09:20:09;1.47;;;0.87;;
6027;SDS011;3042;43.194;27.646;2022-09-24T09:22:40;5.43;;;1.30;;
6027;SDS011;3042;43.194;27.646;2022-09-24T09:25:14;0.80;;;0.80;;
6027;SDS011;3042;43.194;27.646;2022-09-24T09:27:45;1.87;;;0.93;;
6027;SDS011;3042;43.194;27.646;2022-09-24T09:30:17;1.53;;;1.20;;
6027;SDS011;3042;43.194;27.646;2022-09-24T09:32:59;9.67;;;1.43;;
6027;SDS011;3042;43.194;27.646;2022-09-24T09:35:39;1.10;;;0.80;;
6027;SDS011;3042;43.194;27.646;2022-09-24T09:38:13;1.10;;;1.00;;
6027;SDS011;3042;43.194;27.646;2022-09-24T09:40:47;7.30;;;1.17;;
6027;SDS011;3042;43.194;27.646;2022-09-24T09:43:23;0.97;;;0.87;;
6027;SDS011;3042;43.194;27.646;2022-09-24T09:45:56;2.10;;;1.00;;
6027;SDS011;3042;43.194;27.646;2022-09-24T09:48:37;1.70;;;0.90;;
6027;SDS011;3042;43.194;27.646;2022-09-24T09:51:12;3.80;;;1.27;;
6027;SDS011;3042;43.194;27.646;2022-09-24T09:53:54;0.70;;;0.63;;
6027;SDS011;3042;43.194;27.646;2022-09-24T09:56:23;13.20;;;4.40;;
6027;SDS011;3042;43.194;27.646;2022-09-24T09:59:00;8.23;;;3.10;;
6027;SDS011;3042;43.194;27.646;2022-09-24T10:01:33;2.00;;;0.80;;
6027;SDS011;3042;43.194;27.646;2022-09-24T10:04:02;7.83;;;1.67;;
6027;SDS011;3042;43.194;27.646;2022-09-24T10:06:30;5.27;;;1.20;;
6027;SDS011;3042;43.194;27.646;2022-09-24T10:09:06;3.17;;;0.80;;
6027;SDS011;3042;43.194;27.646;2022-09-24T10:11:37;10.77;;;1.90;;
6027;SDS011;3042;43.194;27.646;2022-09-24T10:14:05;3.40;;;1.70;;
6027;SDS011;3042;43.194;27.646;2022-09-24T10:16:38;1.43;;;1.10;;
6027;SDS011;3042;43.194;27.646;2022-09-24T10:19:13;2.43;;;1.43;;
6027;SDS011;3042;43.194;27.646;2022-09-24T10:21:43;0.80;;;0.70;;
6027;SDS011;3042;43.194;27.646;2022-09-24T10:24:12;1.97;;;1.13;;
6027;SDS011;3042;43.194;27.646;2022-09-24T10:26:43;3.43;;;0.93;;
6027;SDS011;3042;43.194;27.646;2022-09-24T10:29:11;1.20;;;1.10;;
6027;SDS011;3042;43.194;27.646;2022-09-24T10:31:59;3.93;;;1.70;;
6027;SDS011;3042;43.194;27.646;2022-09-24T10:34:27;3.80;;;1.67;;
6027;SDS011;3042;43.194;27.646;2022-09-24T10:36:58;7.13;;;1.17;;
6027;SDS011;3042;43.194;27.646;2022-09-24T10:39:28;1.00;;;0.60;;
6027;SDS011;3042;43.194;27.646;2022-09-24T10:41:56;1.57;;;1.20;;
6027;SDS011;3042;43.194;27.646;2022-09-24T10:44:24;1.50;;;1.40;;
6027;SDS011;3042;43.194;27.646;2022-09-24T10:47:04;1.17;;;1.07;;
6027;SDS011;3042;43.194;27.646;2022-09-24T10:49:51;2.20;;;1.30;;
6027;SDS011;3042;43.194;27.646;2022-09-24T10:52:41;9.87;;;1.47;;
6027;SDS011;3042;43.194;27.646;2022-09-24T10:55:15;3.43;;;2.00;;
6027;SDS011;3042;43.194;27.646;2022-09-24T10:57:52;7.60;;;2.33;;
6027;SDS011;3042;43.194;27.646;2022-09-24T11:00:25;10.13;;;1.50;;
6027;SDS011;3042;43.194;27.646;2022-09-24T11:03:13;27.50;;;4.83;;
6027;SDS011;3042;43.194;27.646;2022-09-24T11:06:03;1.47;;;1.33;;
6027;SDS011;3042;43.194;27.646;2022-09-24T11:08:54;5.93;;;1.67;;
6027;SDS011;3042;43.194;27.646;2022-09-24T11:11:40;3.23;;;1.20;;
6027;SDS011;3042;43.194;27.646;2022-09-24T11:14:30;6.80;;;1.73;;
6027;SDS011;3042;43.194;27.646;2022-09-24T11:17:16;16.10;;;2.37;;
6027;SDS011;3042;43.194;27.646;2022-09-24T11:25:55;6.53;;;1.23;;
6027;SDS011;3042;43.194;27.646;2022-09-24T11:28:41;14.70;;;2.80;;
6027;SDS011;3042;43.194;27.646;2022-09-24T11:31:26;6.50;;;1.17;;
6027;SDS011;3042;43.194;27.646;2022-09-24T11:34:03;2.60;;;1.33;;
6027;SDS011;3042;43.194;27.646;2022-09-24T11:37:00;2.80;;;1.07;;
6027;SDS011;3042;43.194;27.646;2022-09-24T11:39:43;5.03;;;0.90;;
6027;SDS011;3042;43.194;27.646;2022-09-24T11:42:21;18.73;;;2.80;;
6027;SDS011;3042;43.194;27.646;2022-09-24T11:44:56;38.97;;;3.70;;
6027;SDS011;3042;43.194;27.646;2022-09-24T11:47:56;7.43;;;2.00;;
6027;SDS011;3042;43.194;27.646;2022-09-24T11:50:41;8.07;;;2.40;;
6027;SDS011;3042;43.194;27.646;2022-09-24T11:53:20;3.90;;;0.60;;
6027;SDS011;3042;43.194;27.646;2022-09-24T11:55:57;0.90;;;0.90;;
6027;SDS011;3042;43.194;27.646;2022-09-24T11:58:27;3.17;;;1.00;;
6027;SDS011;3042;43.194;27.646;2022-09-24T12:00:58;11.43;;;2.30;;
6027;SDS011;3042;43.194;27.646;2022-09-24T12:03:33;8.43;;;3.40;;
6027;SDS011;3042;43.194;27.646;2022-09-24T12:06:06;6.83;;;1.23;;
6027;SDS011;3042;43.194;27.646;2022-09-24T12:08:40;1.40;;;0.80;;
6027;SDS011;3042;43.194;27.646;2022-09-24T12:11:12;0.90;;;0.80;;
6027;SDS011;3042;43.194;27.646;2022-09-24T12:13:47;2.50;;;1.07;;
6027;SDS011;3042;43.194;27.646;2022-09-24T12:16:19;1.10;;;1.00;;
6027;SDS011;3042;43.194;27.646;2022-09-24T12:18:51;3.00;;;1.10;;
6027;SDS011;3042;43.194;27.646;2022-09-24T12:21:24;1.50;;;1.07;;
6027;SDS011;3042;43.194;27.646;2022-09-24T12:23:59;0.83;;;0.83;;
6027;SDS011;3042;43.194;27.646;2022-09-24T12:26:32;1.53;;;1.20;;
6027;SDS011;3042;43.194;27.646;2022-09-24T12:29:06;1.30;;;1.20;;
6027;SDS011;3042;43.194;27.646;2022-09-24T12:32:14;1.27;;;0.87;;
6027;SDS011;3042;43.194;27.646;2022-09-24T12:35:04;0.90;;;0.73;;
6027;SDS011;3042;43.194;27.646;2022-09-24T12:37:36;1.00;;;1.00;;
6027;SDS011;3042;43.194;27.646;2022-09-24T12:40:13;1.40;;;0.77;;
6027;SDS011;3042;43.194;27.646;2022-09-24T12:42:51;0.80;;;0.80;;
6027;SDS011;3042;43.194;27.646;2022-09-24T12:45:23;1.10;;;1.00;;
6027;SDS011;3042;43.194;27.646;2022-09-24T12:47:52;3.20;;;0.80;;
6027;SDS011;3042;43.194;27.646;2022-09-24T12:50:23;2.07;;;0.83;;
6027;SDS011;3042;43.194;27.646;2022-09-24T12:52:53;2.20;;;0.97;;
6027;SDS011;3042;43.194;27.646;2022-09-24T12:55:24;10.83;;;2.80;;
6027;SDS011;3042;43.194;27.646;2022-09-24T12:57:53;2.03;;;0.93;;
6027;SDS011;3042;43.194;27.646;2022-09-24T13:00:38;2.40;;;1.00;;
6027;SDS011;3042;43.194;27.646;2022-09-24T13:05:56;2.43;;;0.70;;
6027;SDS011;3042;43.194;27.646;2022-09-24T13:08:24;1.00;;;0.90;;
6027;SDS011;3042;43.194;27.646;2022-09-24T13:11:02;0.80;;;0.73;;
6027;SDS011;3042;43.194;27.646;2022-09-24T13:13:32;1.30;;;0.70;;
6027;SDS011;3042;43.194;27.646;2022-09-24T13:16:05;0.80;;;0.80;;
6027;SDS011;3042;43.194;27.646;2022-09-24T13:18:49;3.50;;;1.57;;
6027;SDS011;3042;43.194;27.646;2022-09-24T13:21:20;1.70;;;1.03;;
6027;SDS011;3042;43.194;27.646;2022-09-24T13:23:50;2.50;;;1.07;;
6027;SDS011;3042;43.194;27.646;2022-09-24T13:26:30;1.90;;;1.37;;
6027;SDS011;3042;43.194;27.646;2022-09-24T13:29:00;0.80;;;0.67;;
6027;SDS011;3042;43.194;27.646;2022-09-24T13:31:38;2.40;;;1.37;;
6027;SDS011;3042;43.194;27.646;2022-09-24T13:34:13;1.20;;;1.10;;
6027;SDS011;3042;43.194;27.646;2022-09-24T13:36:45;2.40;;;1.03;;
6027;SDS011;3042;43.194;27.646;2022-09-24T13:39:19;8.50;;;1.80;;
6027;SDS011;3042;43.194;27.646;2022-09-24T13:41:55;4.03;;;2.40;;
6027;SDS011;3042;43.194;27.646;2022-09-24T13:44:27;31.07;;;3.03;;
6027;SDS011;3042;43.194;27.646;2022-09-24T13:46:58;5.90;;;1.60;;
6027;SDS011;3042;43.194;27.646;2022-09-24T13:49:28;1.10;;;1.00;;
6027;SDS011;3042;43.194;27.646;2022-09-24T13:51:58;4.63;;;1.30;;
6027;SDS011;3042;43.194;27.646;2022-09-24T13:54:36;2.30;;;1.27;;
6027;SDS011;3042;43.194;27.646;2022-09-24T13:57:13;1.40;;;1.00;;
6027;SDS011;3042;43.194;27.646;2022-09-24T13:59:47;1.73;;;1.13;;
6027;SDS011;3042;43.194;27.646;2022-09-24T14:02:20;0.87;;;0.87;;
6027;SDS011;3042;43.194;27.646;2022-09-24T14:04:53;6.13;;;1.00;;
6027;SDS011;3042;43.194;27.646;2022-09-24T14:07:23;15.23;;;1.40;;
6027;SDS011;3042;43.194;27.646;2022-09-24T14:10:00;2.87;;;1.03;;
6027;SDS011;3042;43.194;27.646;2022-09-24T14:12:30;3.10;;;1.10;;
6027;SDS011;3042;43.194;27.646;2022-09-24T14:14:57;1.10;;;1.00;;
6027;SDS011;3042;43.194;27.646;2022-09-24T14:17:25;1.40;;;1.30;;
6027;SDS011;3042;43.194;27.646;2022-09-24T14:19:53;1.13;;;1.03;;
6027;SDS011;3042;43.194;27.646;2022-09-24T14:22:22;1.93;;;1.03;;
6027;SDS011;3042;43.194;27.646;2022-09-24T14:24:56;1.53;;;1.00;;
6027;SDS011;3042;43.194;27.646;2022-09-24T14:27:30;4.23;;;1.40;;
6027;SDS011;3042;43.194;27.646;2022-09-24T14:30:04;1.63;;;1.53;;
6027;SDS011;3042;43.194;27.646;2022-09-24T14:32:35;6.60;;;2.03;;
6027;SDS011;3042;43.194;27.646;2022-09-24T14:35:04;20.50;;;3.23;;
6027;SDS011;3042;43.194;27.646;2022-09-24T14:37:39;3.27;;;1.23;;
6027;SDS011;3042;43.194;27.646;2022-09-24T14:40:13;6.20;;;1.20;;
6027;SDS011;3042;43.194;27.646;2022-09-24T14:42:44;3.53;;;1.20;;
6027;SDS011;3042;43.194;27.646;2022-09-24T14:45:16;3.37;;;1.77;;
6027;SDS011;3042;43.194;27.646;2022-09-24T14:47:46;14.37;;;3.07;;
6027;SDS011;3042;43.194;27.646;2022-09-24T14:50:29;14.50;;;1.93;;
6027;SDS011;3042;43.194;27.646;2022-09-24T14:53:00;2.00;;;0.90;;
6027;SDS011;3042;43.194;27.646;2022-09-24T14:55:37;6.00;;;1.30;;
6027;SDS011;3042;43.194;27.646;2022-09-24T15:01:01;4.90;;;2.03;;
6027;SDS011;3042;43.194;27.646;2022-09-24T15:03:37;2.37;;;0.87;;
6027;SDS011;3042;43.194;27.646;2022-09-24T15:06:12;1.20;;;1.10;;
6027;SDS011;3042;43.194;27.646;2022-09-24T15:08:50;11.43;;;2.03;;
6027;SDS011;3042;43.194;27.646;2022-09-24T15:11:22;1.93;;;1.83;;
6027;SDS011;3042;43.194;27.646;2022-09-24T15:13:56;1.80;;;1.70;;
6027;SDS011;3042;43.194;27.646;2022-09-24T15:16:28;4.53;;;1.53;;
6027;SDS011;3042;43.194;27.646;2022-09-24T15:19:03;3.43;;;0.90;;
6027;SDS011;3042;43.194;27.646;2022-09-24T15:21:39;7.10;;;1.70;;
6027;SDS011;3042;43.194;27.646;2022-09-24T15:24:07;7.90;;;1.47;;
6027;SDS011;3042;43.194;27.646;2022-09-24T15:26:36;7.37;;;2.83;;
6027;SDS011;3042;43.194;27.646;2022-09-24T15:29:08;6.50;;;2.00;;
6027;SDS011;3042;43.194;27.646;2022-09-24T15:31:43;9.20;;;2.50;;
6027;SDS011;3042;43.194;27.646;2022-09-24T15:34:10;10.48;;;2.20;;